sensor_id;sensor_type;location;lat;lon;timestamp;P1;durP1;ratioP1;P2;durP2;ratioP2
13122;SDS011;6627;50.920;12.050;2022-12-18T00:24:13;42.70;;;20.70;;
13122;SDS011;6627;50.920;12.050;2022-12-18T00:27:06;42.83;;;19.63;;
13122;SDS011;6627;50.920;12.050;2022-12-18T01:00:47;32.37;;;17.03;;
13122;SDS011;6627;50.920;12.050;2022-12-18T01:03:44;31.17;;;16.70;;
13122;SDS011;6627;50.920;12.050;2022-12-18T01:06:50;37.67;;;17.93;;
13122;SDS011;6627;50.920;12.050;2022-12-18T01:09:55;40.83;;;19.23;;
13122;SDS011;6627;50.920;12.050;2022-12-18T01:12:41;40.60;;;17.50;;
13122;SDS011;6627;50.920;12.050;2022-12-18T01:15:40;37.17;;;17.20;;
13122;SDS011;6627;50.920;12.050;2022-12-18T01:18:44;32.20;;;17.13;;
13122;SDS011;6627;50.920;12.050;2022-12-18T01:21:41;30.87;;;16.77;;
13122;SDS011;6627;50.920;12.050;2022-12-18T01:24:26;30.30;;;15.90;;
13122;SDS011;6627;50.920;12.050;2022-12-18T01:27:28;33.37;;;16.50;;
13122;SDS011;6627;50.920;12.050;2022-12-18T01:30:15;33.53;;;16.40;;
13122;SDS011;6627;50.920;12.050;2022-12-18T01:33:02;28.77;;;16.00;;
13122;SDS011;6627;50.920;12.050;2022-12-18T01:35:50;29.53;;;16.10;;
13122;SDS011;6627;50.920;12.050;2022-12-18T01:38:36;27.73;;;15.87;;
13122;SDS011;6627;50.920;12.050;2022-12-18T01:41:28;31.47;;;15.37;;
13122;SDS011;6627;50.920;12.050;2022-12-18T01:47:49;26.93;;;14.87;;
13122;SDS011;6627;50.920;12.050;2022-12-18T01:50:56;26.57;;;14.50;;
13122;SDS011;6627;50.920;12.050;2022-12-18T01:53:58;25.60;;;14.00;;
13122;SDS011;6627;50.920;12.050;2022-12-18T01:56:44;31.40;;;15.90;;
13122;SDS011;6627;50.920;12.050;2022-12-18T01:59:37;25.10;;;14.33;;
13122;SDS011;6627;50.920;12.050;2022-12-18T02:02:10;26.50;;;14.93;;
13122;SDS011;6627;50.920;12.050;2022-12-18T02:04:56;31.33;;;16.23;;
13122;SDS011;6627;50.920;12.050;2022-12-18T02:07:48;42.07;;;16.27;;
13122;SDS011;6627;50.920;12.050;2022-12-18T02:10:54;39.53;;;16.97;;
13122;SDS011;6627;50.920;12.050;2022-12-18T02:13:51;32.60;;;15.57;;
13122;SDS011;6627;50.920;12.050;2022-12-18T02:16:50;40.77;;;17.00;;
13122;SDS011;6627;50.920;12.050;2022-12-18T02:19:47;33.73;;;14.57;;
13122;SDS011;6627;50.920;12.050;2022-12-18T02:22:56;32.50;;;14.30;;
13122;SDS011;6627;50.920;12.050;2022-12-18T02:26:01;30.33;;;15.13;;
13122;SDS011;6627;50.920;12.050;2022-12-18T02:29:04;28.50;;;15.03;;
13122;SDS011;6627;50.920;12.050;2022-12-18T02:32:11;23.23;;;12.60;;
13122;SDS011;6627;50.920;12.050;2022-12-18T02:35:23;26.70;;;12.83;;
13122;SDS011;6627;50.920;12.050;2022-12-18T02:38:12;25.60;;;13.50;;
13122;SDS011;6627;50.920;12.050;2022-12-18T02:41:01;24.73;;;13.27;;
13122;SDS011;6627;50.920;12.050;2022-12-18T02:43:58;23.00;;;12.77;;
13122;SDS011;6627;50.920;12.050;2022-12-18T02:46:49;26.73;;;13.47;;
13122;SDS011;6627;50.920;12.050;2022-12-18T02:49:40;28.47;;;14.10;;
13122;SDS011;6627;50.920;12.050;2022-12-18T02:52:41;25.77;;;13.60;;
13122;SDS011;6627;50.920;12.050;2022-12-18T02:55:44;25.33;;;13.60;;
13122;SDS011;6627;50.920;12.050;2022-12-18T02:58:58;24.80;;;13.57;;
13122;SDS011;6627;50.920;12.050;2022-12-18T03:01:50;23.90;;;13.70;;
13122;SDS011;6627;50.920;12.050;2022-12-18T03:04:43;22.77;;;13.27;;
13122;SDS011;6627;50.920;12.050;2022-12-18T03:07:58;27.07;;;13.03;;
13122;SDS011;6627;50.920;12.050;2022-12-18T03:10:52;26.77;;;14.07;;
13122;SDS011;6627;50.920;12.050;2022-12-18T03:13:50;24.60;;;13.80;;
13122;SDS011;6627;50.920;12.050;2022-12-18T03:16:43;26.33;;;13.53;;
13122;SDS011;6627;50.920;12.050;2022-12-18T03:19:37;26.77;;;13.33;;
13122;SDS011;6627;50.920;12.050;2022-12-18T03:25:30;28.90;;;13.80;;
13122;SDS011;6627;50.920;12.050;2022-12-18T03:28:20;24.63;;;13.77;;
13122;SDS011;6627;50.920;12.050;2022-12-18T03:31:08;27.40;;;13.57;;
13122;SDS011;6627;50.920;12.050;2022-12-18T03:36:57;22.67;;;11.73;;
13122;SDS011;6627;50.920;12.050;2022-12-18T03:40:03;22.83;;;12.70;;
13122;SDS011;6627;50.920;12.050;2022-12-18T04:41:39;21.50;;;12.00;;
13122;SDS011;6627;50.920;12.050;2022-12-18T04:44:27;25.27;;;11.97;;
13122;SDS011;6627;50.920;12.050;2022-12-18T04:47:33;26.53;;;12.70;;
13122;SDS011;6627;50.920;12.050;2022-12-18T04:50:35;26.60;;;13.50;;
13122;SDS011;6627;50.920;12.050;2022-12-18T04:56:41;25.43;;;11.33;;
13122;SDS011;6627;50.920;12.050;2022-12-18T04:59:26;26.53;;;12.67;;
13122;SDS011;6627;50.920;12.050;2022-12-18T05:02:12;21.90;;;12.17;;
13122;SDS011;6627;50.920;12.050;2022-12-18T05:12:54;24.30;;;12.77;;
13122;SDS011;6627;50.920;12.050;2022-12-18T05:15:50;30.07;;;14.73;;
13122;SDS011;6627;50.920;12.050;2022-12-18T05:18:51;32.57;;;17.70;;
13122;SDS011;6627;50.920;12.050;2022-12-18T05:21:44;34.93;;;17.20;;
13122;SDS011;6627;50.920;12.050;2022-12-18T05:24:46;60.07;;;31.83;;
13122;SDS011;6627;50.920;12.050;2022-12-18T05:27:34;49.57;;;26.13;;
13122;SDS011;6627;50.920;12.050;2022-12-18T05:30:38;36.23;;;18.37;;
13122;SDS011;6627;50.920;12.050;2022-12-18T05:33:38;30.37;;;15.77;;
13122;SDS011;6627;50.920;12.050;2022-12-18T05:36:24;30.13;;;16.33;;
13122;SDS011;6627;50.920;12.050;2022-12-18T05:39:10;31.93;;;18.07;;
13122;SDS011;6627;50.920;12.050;2022-12-18T05:41:57;31.37;;;17.00;;
13122;SDS011;6627;50.920;12.050;2022-12-18T07:20:04;34.60;;;17.90;;
13122;SDS011;6627;50.920;12.050;2022-12-18T07:33:11;26.37;;;13.77;;
13122;SDS011;6627;50.920;12.050;2022-12-18T07:39:38;25.80;;;14.03;;
13122;SDS011;6627;50.920;12.050;2022-12-18T07:42:24;31.70;;;16.37;;
13122;SDS011;6627;50.920;12.050;2022-12-18T07:45:29;28.50;;;14.30;;
13122;SDS011;6627;50.920;12.050;2022-12-18T07:55:21;28.00;;;14.57;;
13122;SDS011;6627;50.920;12.050;2022-12-18T07:58:07;25.03;;;14.60;;
13122;SDS011;6627;50.920;12.050;2022-12-18T08:01:11;24.40;;;13.50;;
13122;SDS011;6627;50.920;12.050;2022-12-18T08:03:57;24.77;;;13.90;;
13122;SDS011;6627;50.920;12.050;2022-12-18T08:07:03;24.10;;;12.90;;
13122;SDS011;6627;50.920;12.050;2022-12-18T08:10:08;24.43;;;13.37;;
13122;SDS011;6627;50.920;12.050;2022-12-18T08:12:57;22.03;;;11.80;;
13122;SDS011;6627;50.920;12.050;2022-12-18T08:16:00;23.83;;;11.80;;
13122;SDS011;6627;50.920;12.050;2022-12-18T08:19:10;22.93;;;11.33;;
13122;SDS011;6627;50.920;12.050;2022-12-18T08:22:24;22.67;;;11.43;;
13122;SDS011;6627;50.920;12.050;2022-12-18T08:25:30;24.97;;;12.47;;
13122;SDS011;6627;50.920;12.050;2022-12-18T08:39:38;17.77;;;10.87;;
13122;SDS011;6627;50.920;12.050;2022-12-18T08:42:26;25.87;;;12.10;;
13122;SDS011;6627;50.920;12.050;2022-12-18T08:45:47;19.20;;;10.90;;
13122;SDS011;6627;50.920;12.050;2022-12-18T08:48:43;17.37;;;9.70;;
13122;SDS011;6627;50.920;12.050;2022-12-18T08:51:30;18.70;;;10.50;;
13122;SDS011;6627;50.920;12.050;2022-12-18T08:54:23;22.37;;;10.33;;
13122;SDS011;6627;50.920;12.050;2022-12-18T08:57:05;20.67;;;10.50;;
13122;SDS011;6627;50.920;12.050;2022-12-18T08:59:51;16.60;;;10.63;;
13122;SDS011;6627;50.920;12.050;2022-12-18T09:02:36;18.80;;;11.40;;
13122;SDS011;6627;50.920;12.050;2022-12-18T09:05:30;15.83;;;10.27;;
13122;SDS011;6627;50.920;12.050;2022-12-18T09:08:15;24.40;;;11.77;;
13122;SDS011;6627;50.920;12.050;2022-12-18T09:11:01;23.13;;;13.30;;
13122;SDS011;6627;50.920;12.050;2022-12-18T09:13:48;16.80;;;10.73;;
13122;SDS011;6627;50.920;12.050;2022-12-18T09:16:23;21.03;;;11.80;;
13122;SDS011;6627;50.920;12.050;2022-12-18T09:19:11;19.27;;;10.40;;
13122;SDS011;6627;50.920;12.050;2022-12-18T09:21:57;17.23;;;10.80;;
13122;SDS011;6627;50.920;12.050;2022-12-18T09:24:45;19.90;;;12.17;;
13122;SDS011;6627;50.920;12.050;2022-12-18T09:27:41;18.17;;;10.57;;
13122;SDS011;6627;50.920;12.050;2022-12-18T09:30:30;17.23;;;9.43;;
13122;SDS011;6627;50.920;12.050;2022-12-18T09:33:30;17.13;;;10.03;;
13122;SDS011;6627;50.920;12.050;2022-12-18T09:36:16;15.23;;;10.03;;
13122;SDS011;6627;50.920;12.050;2022-12-18T09:39:03;14.83;;;9.40;;
13122;SDS011;6627;50.920;12.050;2022-12-18T09:42:03;15.13;;;9.67;;
13122;SDS011;6627;50.920;12.050;2022-12-18T09:44:50;15.20;;;9.27;;
13122;SDS011;6627;50.920;12.050;2022-12-18T09:47:45;16.43;;;8.87;;
13122;SDS011;6627;50.920;12.050;2022-12-18T09:50:35;14.13;;;8.73;;
13122;SDS011;6627;50.920;12.050;2022-12-18T09:53:26;15.87;;;9.17;;
13122;SDS011;6627;50.920;12.050;2022-12-18T09:56:18;14.97;;;10.03;;
13122;SDS011;6627;50.920;12.050;2022-12-18T09:59:23;15.17;;;9.90;;
13122;SDS011;6627;50.920;12.050;2022-12-18T10:02:15;16.20;;;10.53;;
13122;SDS011;6627;50.920;12.050;2022-12-18T10:05:17;17.00;;;10.73;;
13122;SDS011;6627;50.920;12.050;2022-12-18T10:08:22;23.90;;;13.77;;
13122;SDS011;6627;50.920;12.050;2022-12-18T10:11:26;28.97;;;14.33;;
13122;SDS011;6627;50.920;12.050;2022-12-18T10:14:34;17.67;;;11.40;;
13122;SDS011;6627;50.920;12.050;2022-12-18T10:17:29;20.17;;;11.77;;
13122;SDS011;6627;50.920;12.050;2022-12-18T10:20:29;21.33;;;12.30;;
13122;SDS011;6627;50.920;12.050;2022-12-18T10:23:28;18.93;;;10.77;;
13122;SDS011;6627;50.920;12.050;2022-12-18T10:26:47;21.63;;;10.63;;
13122;SDS011;6627;50.920;12.050;2022-12-18T10:29:33;16.37;;;10.30;;
13122;SDS011;6627;50.920;12.050;2022-12-18T10:38:21;20.17;;;10.37;;
13122;SDS011;6627;50.920;12.050;2022-12-18T10:52:54;16.23;;;9.33;;
13122;SDS011;6627;50.920;12.050;2022-12-18T10:55:44;17.03;;;10.30;;
13122;SDS011;6627;50.920;12.050;2022-12-18T10:58:33;14.70;;;9.73;;
13122;SDS011;6627;50.920;12.050;2022-12-18T11:01:21;17.40;;;10.67;;
13122;SDS011;6627;50.920;12.050;2022-12-18T11:04:08;15.27;;;10.83;;
13122;SDS011;6627;50.920;12.050;2022-12-18T11:07:01;16.13;;;10.73;;
13122;SDS011;6627;50.920;12.050;2022-12-18T11:10:03;19.07;;;12.00;;
13122;SDS011;6627;50.920;12.050;2022-12-18T11:12:52;18.97;;;11.70;;
13122;SDS011;6627;50.920;12.050;2022-12-18T11:15:39;18.47;;;12.17;;
13122;SDS011;6627;50.920;12.050;2022-12-18T11:18:27;19.60;;;12.17;;
13122;SDS011;6627;50.920;12.050;2022-12-18T11:21:38;18.83;;;11.93;;
13122;SDS011;6627;50.920;12.050;2022-12-18T11:24:50;19.20;;;12.23;;
13122;SDS011;6627;50.920;12.050;2022-12-18T11:51:34;16.37;;;10.57;;
13122;SDS011;6627;50.920;12.050;2022-12-18T11:54:32;18.67;;;10.30;;
13122;SDS011;6627;50.920;12.050;2022-12-18T11:57:25;18.33;;;9.67;;
13122;SDS011;6627;50.920;12.050;2022-12-18T12:00:22;15.07;;;10.47;;
13122;SDS011;6627;50.920;12.050;2022-12-18T12:03:13;17.47;;;10.20;;
13122;SDS011;6627;50.920;12.050;2022-12-18T12:06:24;14.00;;;10.20;;
13122;SDS011;6627;50.920;12.050;2022-12-18T12:09:23;16.37;;;11.40;;
13122;SDS011;6627;50.920;12.050;2022-12-18T12:12:28;15.53;;;9.90;;
13122;SDS011;6627;50.920;12.050;2022-12-18T12:15:42;17.37;;;10.53;;
13122;SDS011;6627;50.920;12.050;2022-12-18T12:18:46;16.27;;;9.67;;
13122;SDS011;6627;50.920;12.050;2022-12-18T12:21:49;18.10;;;11.87;;
13122;SDS011;6627;50.920;12.050;2022-12-18T12:25:07;32.17;;;15.87;;
13122;SDS011;6627;50.920;12.050;2022-12-18T12:45:58;26.07;;;15.77;;
13122;SDS011;6627;50.920;12.050;2022-12-18T12:48:36;19.50;;;13.30;;
13122;SDS011;6627;50.920;12.050;2022-12-18T12:51:33;13.97;;;9.60;;
13122;SDS011;6627;50.920;12.050;2022-12-18T12:54:22;14.53;;;9.13;;
13122;SDS011;6627;50.920;12.050;2022-12-18T12:57:15;13.63;;;8.60;;
13122;SDS011;6627;50.920;12.050;2022-12-18T13:00:11;14.03;;;9.33;;
13122;SDS011;6627;50.920;12.050;2022-12-18T13:03:03;13.20;;;8.63;;
13122;SDS011;6627;50.920;12.050;2022-12-18T13:06:08;17.63;;;9.43;;
13122;SDS011;6627;50.920;12.050;2022-12-18T13:09:18;14.97;;;9.43;;
13122;SDS011;6627;50.920;12.050;2022-12-18T13:12:08;18.73;;;11.30;;
13122;SDS011;6627;50.920;12.050;2022-12-18T13:15:30;18.73;;;12.87;;
13122;SDS011;6627;50.920;12.050;2022-12-18T13:18:23;17.37;;;11.03;;
13122;SDS011;6627;50.920;12.050;2022-12-18T13:21:13;18.50;;;12.73;;
13122;SDS011;6627;50.920;12.050;2022-12-18T13:24:14;14.80;;;9.67;;
13122;SDS011;6627;50.920;12.050;2022-12-18T13:31:01;14.83;;;10.27;;
13122;SDS011;6627;50.920;12.050;2022-12-18T13:43:41;36.90;;;20.87;;
13122;SDS011;6627;50.920;12.050;2022-12-18T13:46:44;34.37;;;19.03;;
13122;SDS011;6627;50.920;12.050;2022-12-18T13:53:04;18.40;;;11.20;;
13122;SDS011;6627;50.920;12.050;2022-12-18T13:56:14;24.83;;;16.17;;
13122;SDS011;6627;50.920;12.050;2022-12-18T13:59:05;42.93;;;24.80;;
13122;SDS011;6627;50.920;12.050;2022-12-18T14:02:07;30.73;;;21.53;;
13122;SDS011;6627;50.920;12.050;2022-12-18T14:04:59;32.33;;;19.90;;
13122;SDS011;6627;50.920;12.050;2022-12-18T14:07:53;30.13;;;20.73;;
13122;SDS011;6627;50.920;12.050;2022-12-18T14:10:46;56.13;;;33.77;;
13122;SDS011;6627;50.920;12.050;2022-12-18T14:13:20;57.60;;;37.20;;
13122;SDS011;6627;50.920;12.050;2022-12-18T14:35:58;20.20;;;11.97;;
13122;SDS011;6627;50.920;12.050;2022-12-18T14:39:00;20.00;;;12.53;;
13122;SDS011;6627;50.920;12.050;2022-12-18T14:41:46;16.97;;;10.90;;
13122;SDS011;6627;50.920;12.050;2022-12-18T14:44:35;17.50;;;11.87;;
13122;SDS011;6627;50.920;12.050;2022-12-18T14:47:31;18.57;;;11.53;;
13122;SDS011;6627;50.920;12.050;2022-12-18T14:50:31;17.90;;;10.87;;
13122;SDS011;6627;50.920;12.050;2022-12-18T14:53:26;20.03;;;11.07;;
13122;SDS011;6627;50.920;12.050;2022-12-18T14:56:30;17.97;;;9.80;;
13122;SDS011;6627;50.920;12.050;2022-12-18T14:59:19;20.43;;;12.83;;
13122;SDS011;6627;50.920;12.050;2022-12-18T15:02:20;24.57;;;14.37;;
13122;SDS011;6627;50.920;12.050;2022-12-18T15:05:28;27.03;;;15.57;;
13122;SDS011;6627;50.920;12.050;2022-12-18T15:08:36;26.27;;;15.17;;
13122;SDS011;6627;50.920;12.050;2022-12-18T15:11:25;23.17;;;14.73;;
13122;SDS011;6627;50.920;12.050;2022-12-18T15:14:23;17.57;;;11.70;;
13122;SDS011;6627;50.920;12.050;2022-12-18T15:17:38;16.97;;;11.40;;
13122;SDS011;6627;50.920;12.050;2022-12-18T15:37:38;30.43;;;19.83;;
13122;SDS011;6627;50.920;12.050;2022-12-18T15:44:25;31.93;;;21.47;;
13122;SDS011;6627;50.920;12.050;2022-12-18T15:47:11;29.10;;;18.03;;
13122;SDS011;6627;50.920;12.050;2022-12-18T15:50:13;26.43;;;17.20;;
13122;SDS011;6627;50.920;12.050;2022-12-18T15:53:01;30.73;;;19.47;;
13122;SDS011;6627;50.920;12.050;2022-12-18T15:55:47;43.93;;;27.23;;
13122;SDS011;6627;50.920;12.050;2022-12-18T15:58:50;24.87;;;16.57;;
13122;SDS011;6627;50.920;12.050;2022-12-18T16:01:36;27.70;;;17.53;;
13122;SDS011;6627;50.920;12.050;2022-12-18T16:04:24;29.50;;;17.47;;
13122;SDS011;6627;50.920;12.050;2022-12-18T16:07:12;33.23;;;21.37;;
13122;SDS011;6627;50.920;12.050;2022-12-18T16:09:59;57.20;;;32.00;;
13122;SDS011;6627;50.920;12.050;2022-12-18T16:12:55;55.47;;;31.20;;
13122;SDS011;6627;50.920;12.050;2022-12-18T16:15:45;44.63;;;25.37;;
13122;SDS011;6627;50.920;12.050;2022-12-18T16:18:45;29.63;;;19.17;;
13122;SDS011;6627;50.920;12.050;2022-12-18T16:21:31;29.97;;;19.63;;
13122;SDS011;6627;50.920;12.050;2022-12-18T16:24:33;31.27;;;19.93;;
13122;SDS011;6627;50.920;12.050;2022-12-18T16:27:36;29.50;;;19.80;;
13122;SDS011;6627;50.920;12.050;2022-12-18T16:30:11;33.87;;;20.23;;
13122;SDS011;6627;50.920;12.050;2022-12-18T16:32:59;35.10;;;21.07;;
13122;SDS011;6627;50.920;12.050;2022-12-18T16:35:36;35.90;;;23.67;;
13122;SDS011;6627;50.920;12.050;2022-12-18T16:38:22;30.77;;;19.67;;
13122;SDS011;6627;50.920;12.050;2022-12-18T16:41:14;29.37;;;18.77;;
13122;SDS011;6627;50.920;12.050;2022-12-18T16:44:17;29.43;;;17.00;;
13122;SDS011;6627;50.920;12.050;2022-12-18T16:47:03;28.67;;;17.60;;
13122;SDS011;6627;50.920;12.050;2022-12-18T16:49:49;25.20;;;16.80;;
13122;SDS011;6627;50.920;12.050;2022-12-18T16:52:35;29.50;;;17.53;;
13122;SDS011;6627;50.920;12.050;2022-12-18T16:55:35;32.13;;;18.27;;
13122;SDS011;6627;50.920;12.050;2022-12-18T16:58:26;30.03;;;19.23;;
13122;SDS011;6627;50.920;12.050;2022-12-18T17:01:23;28.90;;;16.97;;
13122;SDS011;6627;50.920;12.050;2022-12-18T17:04:12;25.13;;;14.90;;
13122;SDS011;6627;50.920;12.050;2022-12-18T17:07:18;24.27;;;14.53;;
13122;SDS011;6627;50.920;12.050;2022-12-18T17:38:41;23.63;;;13.40;;
13122;SDS011;6627;50.920;12.050;2022-12-18T17:41:29;25.97;;;14.10;;
13122;SDS011;6627;50.920;12.050;2022-12-18T17:44:17;22.53;;;13.80;;
13122;SDS011;6627;50.920;12.050;2022-12-18T17:47:04;19.87;;;13.03;;
13122;SDS011;6627;50.920;12.050;2022-12-18T17:49:50;21.00;;;12.47;;
13122;SDS011;6627;50.920;12.050;2022-12-18T17:52:35;21.10;;;13.63;;
13122;SDS011;6627;50.920;12.050;2022-12-18T17:55:36;21.87;;;12.63;;
13122;SDS011;6627;50.920;12.050;2022-12-18T17:58:35;22.73;;;13.47;;
13122;SDS011;6627;50.920;12.050;2022-12-18T18:01:24;25.83;;;14.10;;
13122;SDS011;6627;50.920;12.050;2022-12-18T18:04:27;21.60;;;13.20;;
13122;SDS011;6627;50.920;12.050;2022-12-18T18:07:14;21.83;;;13.23;;
13122;SDS011;6627;50.920;12.050;2022-12-18T18:10:00;21.43;;;13.13;;
13122;SDS011;6627;50.920;12.050;2022-12-18T18:12:47;22.47;;;13.27;;
13122;SDS011;6627;50.920;12.050;2022-12-18T18:15:33;19.23;;;12.67;;
13122;SDS011;6627;50.920;12.050;2022-12-18T18:18:20;22.07;;;12.63;;
13122;SDS011;6627;50.920;12.050;2022-12-18T18:21:07;22.20;;;12.47;;
13122;SDS011;6627;50.920;12.050;2022-12-18T18:38:13;17.63;;;10.60;;
13122;SDS011;6627;50.920;12.050;2022-12-18T18:41:06;17.23;;;9.83;;
13122;SDS011;6627;50.920;12.050;2022-12-18T18:43:53;17.17;;;10.00;;
13122;SDS011;6627;50.920;12.050;2022-12-18T18:46:39;17.40;;;9.90;;
13122;SDS011;6627;50.920;12.050;2022-12-18T18:49:25;14.20;;;9.40;;
13122;SDS011;6627;50.920;12.050;2022-12-18T18:52:15;15.70;;;9.23;;
13122;SDS011;6627;50.920;12.050;2022-12-18T18:55:08;11.70;;;8.00;;
13122;SDS011;6627;50.920;12.050;2022-12-18T18:57:54;13.47;;;8.70;;
13122;SDS011;6627;50.920;12.050;2022-12-18T19:01:00;13.63;;;8.33;;
13122;SDS011;6627;50.920;12.050;2022-12-18T19:33:21;13.17;;;8.43;;
13122;SDS011;6627;50.920;12.050;2022-12-18T19:36:11;14.83;;;8.33;;
13122;SDS011;6627;50.920;12.050;2022-12-18T19:39:06;14.03;;;8.30;;
13122;SDS011;6627;50.920;12.050;2022-12-18T19:41:57;13.13;;;8.63;;
13122;SDS011;6627;50.920;12.050;2022-12-18T19:44:57;13.30;;;9.10;;
13122;SDS011;6627;50.920;12.050;2022-12-18T19:55:18;11.90;;;8.20;;
13122;SDS011;6627;50.920;12.050;2022-12-18T19:58:06;16.43;;;8.70;;
13122;SDS011;6627;50.920;12.050;2022-12-18T20:01:06;15.40;;;8.73;;
13122;SDS011;6627;50.920;12.050;2022-12-18T20:03:55;13.60;;;8.20;;
13122;SDS011;6627;50.920;12.050;2022-12-18T20:06:57;14.27;;;8.30;;
13122;SDS011;6627;50.920;12.050;2022-12-18T20:09:43;13.90;;;7.83;;
13122;SDS011;6627;50.920;12.050;2022-12-18T20:12:30;13.23;;;8.40;;
13122;SDS011;6627;50.920;12.050;2022-12-18T20:15:30;14.03;;;8.57;;
13122;SDS011;6627;50.920;12.050;2022-12-18T20:18:17;16.40;;;9.10;;
13122;SDS011;6627;50.920;12.050;2022-12-18T20:21:07;15.47;;;8.70;;
13122;SDS011;6627;50.920;12.050;2022-12-18T20:23:53;12.67;;;7.93;;
13122;SDS011;6627;50.920;12.050;2022-12-18T20:26:45;13.70;;;8.17;;
13122;SDS011;6627;50.920;12.050;2022-12-18T20:29:53;13.30;;;8.20;;
13122;SDS011;6627;50.920;12.050;2022-12-18T20:32:39;13.47;;;8.27;;
13122;SDS011;6627;50.920;12.050;2022-12-18T20:35:24;15.17;;;8.93;;
13122;SDS011;6627;50.920;12.050;2022-12-18T20:38:11;11.73;;;8.37;;
13122;SDS011;6627;50.920;12.050;2022-12-18T20:40:39;16.20;;;8.87;;
13122;SDS011;6627;50.920;12.050;2022-12-18T20:43:27;16.23;;;8.60;;
13122;SDS011;6627;50.920;12.050;2022-12-18T20:46:14;12.97;;;8.20;;
13122;SDS011;6627;50.920;12.050;2022-12-18T20:49:21;12.83;;;7.30;;
13122;SDS011;6627;50.920;12.050;2022-12-18T20:52:16;13.93;;;7.10;;
13122;SDS011;6627;50.920;12.050;2022-12-18T20:55:02;11.60;;;7.73;;
13122;SDS011;6627;50.920;12.050;2022-12-18T20:58:09;11.43;;;7.50;;
13122;SDS011;6627;50.920;12.050;2022-12-18T21:01:09;16.57;;;7.53;;
13122;SDS011;6627;50.920;12.050;2022-12-18T21:04:12;11.03;;;6.50;;
13122;SDS011;6627;50.920;12.050;2022-12-18T21:06:58;11.07;;;7.23;;
13122;SDS011;6627;50.920;12.050;2022-12-18T21:09:44;10.77;;;7.23;;
13122;SDS011;6627;50.920;12.050;2022-12-18T21:49:06;11.57;;;7.03;;
13122;SDS011;6627;50.920;12.050;2022-12-18T21:51:54;10.90;;;6.80;;
13122;SDS011;6627;50.920;12.050;2022-12-18T21:54:42;10.27;;;6.40;;
13122;SDS011;6627;50.920;12.050;2022-12-18T21:57:28;10.80;;;6.43;;
13122;SDS011;6627;50.920;12.050;2022-12-18T22:00:14;11.00;;;6.83;;
13122;SDS011;6627;50.920;12.050;2022-12-18T22:03:00;12.23;;;7.57;;
13122;SDS011;6627;50.920;12.050;2022-12-18T22:05:48;14.77;;;7.67;;
13122;SDS011;6627;50.920;12.050;2022-12-18T22:08:41;13.63;;;7.10;;
13122;SDS011;6627;50.920;12.050;2022-12-18T22:11:27;13.60;;;7.23;;
13122;SDS011;6627;50.920;12.050;2022-12-18T22:14:13;14.03;;;8.07;;
13122;SDS011;6627;50.920;12.050;2022-12-18T22:17:02;12.50;;;7.80;;
13122;SDS011;6627;50.920;12.050;2022-12-18T22:20:08;12.03;;;8.30;;
13122;SDS011;6627;50.920;12.050;2022-12-18T22:22:57;11.60;;;7.00;;
13122;SDS011;6627;50.920;12.050;2022-12-18T22:25:43;12.13;;;7.43;;
13122;SDS011;6627;50.920;12.050;2022-12-18T22:28:31;14.37;;;8.00;;
13122;SDS011;6627;50.920;12.050;2022-12-18T22:31:34;14.90;;;8.37;;
13122;SDS011;6627;50.920;12.050;2022-12-18T22:34:37;13.97;;;8.10;;
13122;SDS011;6627;50.920;12.050;2022-12-18T22:37:23;14.63;;;7.73;;
13122;SDS011;6627;50.920;12.050;2022-12-18T22:40:23;13.10;;;7.93;;
13122;SDS011;6627;50.920;12.050;2022-12-18T22:43:21;13.67;;;7.43;;
13122;SDS011;6627;50.920;12.050;2022-12-18T22:46:07;14.47;;;8.43;;
13122;SDS011;6627;50.920;12.050;2022-12-18T22:49:09;15.97;;;8.67;;
13122;SDS011;6627;50.920;12.050;2022-12-18T22:52:11;13.00;;;7.43;;
13122;SDS011;6627;50.920;12.050;2022-12-18T22:54:59;15.80;;;8.80;;
